Time;durP1;ratioP1;P1;durP2;ratioP2;P2;SDS_P1;SDS_P2;PMS_P1;PMS_P2;Temp;Humidity;BMP_temperature;BMP_pressure;BME280_temperature;BME280_humidity;BME280_pressure;Samples;Min_cycle;Max_cycle;Signal;HPM_P1;HPM_P2
2023/07/16 00:02:08;;;;;;;6.00;5.40;;;;;;;25.02;75.52;99006.16;5050699;28;20048;-86
2023/07/16 00:04:34;;;;;;;6.97;5.22;;;;;;;24.81;75.49;98972.19;5050855;28;20496;-86
2023/07/16 00:07:01;;;;;;;5.70;5.13;;;;;;;25.02;75.76;99006.97;5065460;28;20109;-86
2023/07/16 00:09:26;;;;;;;5.40;4.90;;;;;;;24.96;76.26;98998.88;5070636;28;20169;-86
2023/07/16 00:11:52;;;;;;;5.35;4.85;;;;;;;24.99;76.17;99009.16;5072522;28;20536;-86
2023/07/16 00:14:17;;;;;;;7.90;5.20;;;;;;;24.73;76.74;98967.75;5073102;28;20020;-86
2023/07/16 00:16:43;;;;;;;5.22;4.80;;;;;;;24.91;76.98;99002.09;5073238;28;20035;-86
2023/07/16 00:19:11;;;;;;;6.18;5.03;;;;;;;24.89;77.30;99007.56;5072794;28;20020;-86
2023/07/16 00:21:37;;;;;;;11.93;4.75;;;;;;;24.74;77.54;98979.25;5071719;28;20032;-86
2023/07/16 00:24:03;;;;;;;5.70;5.13;;;;;;;24.92;77.98;99009.06;5072646;28;20031;-86
2023/07/16 00:26:28;;;;;;;5.38;4.88;;;;;;;24.87;77.99;99001.63;5071483;28;20484;-86
2023/07/16 00:28:54;;;;;;;6.00;5.40;;;;;;;24.87;78.12;98998.94;5073050;28;20070;-86
2023/07/16 00:31:19;;;;;;;6.93;5.22;;;;;;;24.60;78.58;98968.34;5072639;28;20131;-86
2023/07/16 00:33:45;;;;;;;5.90;4.35;;;;;;;24.59;78.97;98965.88;5071546;28;20515;-86
2023/07/16 00:36:30;;;;;;;6.88;5.20;;;;;;;24.83;79.18;98997.66;5072369;28;20020;-86
2023/07/16 00:38:56;;;;;;;6.55;4.85;;;;;;;24.58;79.10;98970.38;5090041;28;20058;-86
2023/07/16 00:41:23;;;;;;;5.40;4.90;;;;;;;24.62;79.89;98979.66;5090081;28;20115;-86
2023/07/16 00:43:50;;;;;;;7.25;5.13;;;;;;;24.64;80.33;98990.13;5073379;28;20036;-86
2023/07/16 00:46:18;;;;;;;7.38;4.80;;;;;;;24.51;80.45;98966.75;5089921;28;20079;-86
2023/07/16 00:48:48;;;;;;;5.35;4.82;;;;;;;24.46;80.76;98963.81;5073087;28;20040;-86
2023/07/16 00:51:14;;;;;;;8.73;5.00;;;;;;;24.59;80.91;98995.16;5089806;28;20040;-86
2023/07/16 00:53:43;;;;;;;7.25;5.50;;;;;;;24.48;80.83;98972.47;5090094;28;20059;-86
2023/07/16 00:56:09;;;;;;;5.30;4.90;;;;;;;24.50;81.04;98996.22;5089918;28;20027;-86
2023/07/16 00:58:35;;;;;;;6.68;5.30;;;;;;;24.47;81.30;98991.25;5090082;28;20468;-86
2023/07/16 01:01:01;;;;;;;5.07;4.57;;;;;;;24.41;81.40;98971.50;5090103;28;20119;-86
2023/07/16 01:03:27;;;;;;;5.30;4.90;;;;;;;24.35;81.69;98972.16;5089565;28;20032;-86
2023/07/16 01:06:04;;;;;;;5.25;4.50;;;;;;;24.36;81.96;98984.50;5089978;28;20036;-86
2023/07/16 01:08:42;;;;;;;5.53;5.03;;;;;;;24.10;82.25;98948.38;5090084;28;20066;-86
2023/07/16 01:11:08;;;;;;;9.27;5.60;;;;;;;24.32;82.67;98985.84;5071986;28;20418;-86
2023/07/16 01:13:35;;;;;;;6.05;5.30;;;;;;;24.14;83.26;98964.81;5072436;28;20150;-85
2023/07/16 01:16:00;;;;;;;5.80;5.20;;;;;;;24.09;83.76;98967.16;5071864;28;20388;-86
2023/07/16 01:18:27;;;;;;;6.18;4.97;;;;;;;24.12;83.73;98978.28;5072017;28;20035;-86
2023/07/16 01:20:53;;;;;;;8.20;4.88;;;;;;;24.10;84.02;98979.47;5072102;28;20024;-86
2023/07/16 01:23:37;;;;;;;5.85;5.25;;;;;;;24.11;84.39;98978.47;5071969;28;20510;-86
2023/07/16 01:26:08;;;;;;;6.30;5.43;;;;;;;24.06;84.44;98973.69;5072030;28;20480;-86
2023/07/16 01:29:04;;;;;;;7.80;5.50;;;;;;;24.03;85.14;98976.69;5070640;28;20036;-86
2023/07/16 01:31:32;;;;;;;6.05;5.20;;;;;;;23.87;85.85;98950.97;5072067;28;20070;-86
2023/07/16 01:34:00;;;;;;;6.47;5.50;;;;;;;23.89;85.74;98950.81;5072058;28;20025;-86
2023/07/16 01:36:28;;;;;;;5.75;4.80;;;;;;;23.77;85.96;98925.63;5069512;28;20373;-86
2023/07/16 01:38:53;;;;;;;7.28;5.63;;;;;;;23.77;86.33;98950.38;5070361;28;20049;-86
2023/07/16 01:41:19;;;;;;;6.32;5.18;;;;;;;23.62;86.79;98928.13;5071962;28;20047;-86
2023/07/16 01:43:44;;;;;;;6.45;5.18;;;;;;;23.62;87.22;98936.13;5071796;28;20028;-86
2023/07/16 01:46:10;;;;;;;8.35;5.72;;;;;;;23.57;87.41;98923.34;5071625;28;20103;-86
2023/07/16 01:48:38;;;;;;;5.97;4.70;;;;;;;23.71;87.51;98951.06;5071953;28;20056;-86
2023/07/16 01:51:04;;;;;;;6.32;5.05;;;;;;;23.66;87.65;98937.47;5071878;28;20032;-86
2023/07/16 01:53:31;;;;;;;5.93;5.35;;;;;;;23.41;88.04;98910.94;5071700;28;20060;-85
2023/07/16 01:55:58;;;;;;;6.72;5.53;;;;;;;23.42;87.94;98914.41;5071920;28;20038;-86
2023/07/16 01:58:23;;;;;;;9.43;5.80;;;;;;;23.59;88.42;98942.59;5071582;28;20058;-85
2023/07/16 02:01:10;;;;;;;6.68;5.10;;;;;;;23.66;88.52;98972.03;5071954;28;20029;-85
2023/07/16 02:03:36;;;;;;;6.85;5.47;;;;;;;23.53;88.25;98951.25;5089343;28;20144;-85
2023/07/16 02:06:01;;;;;;;9.02;5.25;;;;;;;23.69;88.52;98982.31;5089367;28;20529;-85
2023/07/16 02:08:27;;;;;;;6.07;5.00;;;;;;;23.63;88.60;98989.09;5089147;28;20038;-86
2023/07/16 02:10:53;;;;;;;6.50;5.30;;;;;;;23.64;88.60;98990.78;5089305;28;20126;-86
2023/07/16 02:13:18;;;;;;;5.78;5.25;;;;;;;23.48;88.39;98950.13;5089103;28;20111;-85
2023/07/16 02:15:43;;;;;;;5.78;5.28;;;;;;;23.64;88.71;98968.69;5091880;28;20111;-86
2023/07/16 02:18:10;;;;;;;6.85;5.28;;;;;;;23.63;88.62;98978.47;5052400;28;20064;-86
2023/07/16 02:20:35;;;;;;;5.45;4.82;;;;;;;23.65;88.91;98992.47;5035870;28;20099;-85
2023/07/16 02:23:03;;;;;;;5.15;4.72;;;;;;;23.53;89.02;98982.34;5052739;28;20037;-86
2023/07/16 02:25:51;;;;;;;9.43;4.78;;;;;;;23.62;88.98;99005.22;5052528;28;20033;-85
2023/07/16 02:28:19;;;;;;;6.18;4.80;;;;;;;23.42;89.39;98967.56;5052542;28;20036;-85
2023/07/16 02:30:46;;;;;;;6.65;5.18;;;;;;;23.37;90.00;98959.28;5052658;28;20052;-86
2023/07/16 02:33:13;;;;;;;5.90;5.05;;;;;;;23.49;90.20;98992.47;5052246;28;20037;-85
2023/07/16 02:35:38;;;;;;;6.35;5.75;;;;;;;23.46;90.24;98991.97;5071385;28;20037;-85
2023/07/16 02:38:03;;;;;;;5.95;5.20;;;;;;;23.28;90.31;98970.94;5051985;28;20029;-86
2023/07/16 02:40:28;;;;;;;5.70;4.90;;;;;;;23.37;90.87;98989.34;5052161;28;20051;-86
2023/07/16 02:42:54;;;;;;;6.78;5.00;;;;;;;23.33;91.01;98996.00;5052330;28;20041;-85
2023/07/16 02:45:20;;;;;;;7.90;5.13;;;;;;;23.33;91.12;98997.81;5052432;28;20067;-85
2023/07/16 02:47:46;;;;;;;7.75;5.97;;;;;;;23.21;91.18;98975.25;5052454;28;20087;-85
2023/07/16 02:50:12;;;;;;;5.65;5.15;;;;;;;23.29;91.46;98996.50;5070612;28;20063;-85
2023/07/16 02:52:37;;;;;;;6.25;5.50;;;;;;;23.19;91.69;99003.84;5055458;28;20109;-86
2023/07/16 02:55:03;;;;;;;9.13;5.15;;;;;;;23.25;91.93;99019.09;5071979;28;20068;-86
2023/07/16 02:57:30;;;;;;;5.75;5.15;;;;;;;23.31;91.55;99019.25;5072016;28;20036;-86
2023/07/16 02:59:55;;;;;;;6.03;5.43;;;;;;;23.14;91.60;98991.06;5072133;28;20040;-85
2023/07/16 03:02:21;;;;;;;5.97;5.47;;;;;;;23.24;92.33;99020.09;5092046;28;20169;-85
2023/07/16 03:04:46;;;;;;;5.72;5.13;;;;;;;23.13;92.29;99008.81;5092760;28;20135;-86
2023/07/16 03:07:11;;;;;;;5.95;5.32;;;;;;;23.20;92.38;99021.44;5092009;28;20032;-85
2023/07/16 03:09:37;;;;;;;6.38;4.80;;;;;;;23.14;92.60;99007.81;5091998;28;20186;-85
2023/07/16 03:12:02;;;;;;;6.00;5.13;;;;;;;23.10;92.86;99013.63;5075039;28;20036;-85
2023/07/16 03:14:28;;;;;;;6.82;5.47;;;;;;;23.17;93.22;99027.88;5091717;28;20047;-86
2023/07/16 03:16:53;;;;;;;7.07;5.28;;;;;;;23.07;93.32;99021.94;5091927;28;20032;-85
2023/07/16 03:19:18;;;;;;;11.32;5.18;;;;;;;23.09;93.39;99041.16;5092084;28;20038;-86
2023/07/16 03:21:45;;;;;;;5.75;5.13;;;;;;;23.07;93.62;99059.94;5092246;28;20036;-86
2023/07/16 03:24:12;;;;;;;6.43;5.32;;;;;;;23.14;93.40;99122.06;5074666;28;20100;-85
2023/07/16 03:26:37;;;;;;;5.65;5.18;;;;;;;23.12;93.14;99147.09;5091709;28;20081;-86
2023/07/16 03:29:03;;;;;;;6.55;5.35;;;;;;;23.14;93.75;99161.91;5091836;28;20491;-86
2023/07/16 03:31:28;;;;;;;6.90;5.70;;;;;;;23.35;93.44;99129.53;5091460;28;20162;-86
2023/07/16 03:33:57;;;;;;;6.20;5.40;;;;;;;23.25;93.15;99134.16;5078617;28;20037;-86
2023/07/16 03:36:22;;;;;;;6.85;5.03;;;;;;;23.22;92.91;99121.22;5051047;28;20397;-86
2023/07/16 03:38:47;;;;;;;6.72;6.03;;;;;;;23.28;92.47;99154.28;5034518;28;20098;-86
2023/07/16 03:41:12;;;;;;;7.45;5.82;;;;;;;23.23;92.93;99124.72;5051135;28;20128;-86
2023/07/16 03:43:38;;;;;;;6.20;5.55;;;;;;;23.28;92.65;99165.72;5034582;28;20029;-85
2023/07/16 03:46:07;;;;;;;5.70;5.20;;;;;;;23.29;92.48;99185.16;5034418;28;20041;-85
2023/07/16 03:48:32;;;;;;;6.20;5.60;;;;;;;23.42;92.74;99182.84;5050973;28;20036;-85
2023/07/16 03:50:57;;;;;;;5.70;5.20;;;;;;;23.48;92.63;99238.00;5050749;28;20060;-85
2023/07/16 03:53:23;;;;;;;6.88;5.63;;;;;;;23.24;92.84;99192.78;5050899;28;20037;-86
2023/07/16 03:55:51;;;;;;;7.55;5.50;;;;;;;23.34;92.03;99207.59;5051085;28;20179;-85
2023/07/16 03:58:16;;;;;;;5.82;5.30;;;;;;;23.43;92.52;99221.72;5050873;28;20033;-86
2023/07/16 04:00:42;;;;;;;6.60;5.53;;;;;;;23.42;92.89;99220.03;5051190;28;20397;-85
2023/07/16 04:03:08;;;;;;;6.28;5.68;;;;;;;23.60;92.68;99222.56;5050869;28;20037;-85
2023/07/16 04:05:34;;;;;;;6.25;5.53;;;;;;;23.71;92.46;99237.38;5050968;28;20386;-86
2023/07/16 04:07:59;;;;;;;6.95;5.72;;;;;;;23.75;92.23;99223.59;5081278;28;20065;-86
2023/07/16 04:10:24;;;;;;;6.65;5.82;;;;;;;23.87;92.04;99238.22;5090664;28;20038;-85
2023/07/16 04:12:49;;;;;;;6.50;5.80;;;;;;;24.02;91.61;99248.16;5090910;28;20086;-86
2023/07/16 04:15:15;;;;;;;6.85;5.60;;;;;;;23.98;91.54;99221.09;5090609;28;20058;-86
2023/07/16 04:17:41;;;;;;;6.10;5.60;;;;;;;24.36;91.01;99248.00;5073681;28;20563;-86
2023/07/16 04:20:07;;;;;;;5.72;5.20;;;;;;;24.71;89.56;99241.41;5091181;28;20143;-86
2023/07/16 04:22:35;;;;;;;6.15;5.53;;;;;;;25.36;86.38;99258.94;5077673;28;20090;-86
2023/07/16 04:25:01;;;;;;;6.30;5.70;;;;;;;25.46;85.49;99261.41;5073066;28;20107;-86
2023/07/16 04:27:26;;;;;;;6.60;5.35;;;;;;;25.64;84.94;99249.41;5072546;28;20111;-86
2023/07/16 04:29:52;;;;;;;6.78;5.53;;;;;;;26.69;81.16;99243.31;5072916;28;20039;-87
2023/07/16 04:32:20;;;;;;;7.35;6.13;;;;;;;27.72;77.42;99284.22;5072985;28;20119;-87
2023/07/16 04:34:46;;;;;;;7.55;5.80;;;;;;;27.41;77.14;99255.09;5073527;28;20550;-87
2023/07/16 04:37:12;;;;;;;5.65;5.07;;;;;;;27.20;78.25;99274.63;5070847;28;20024;-87
2023/07/16 04:39:37;;;;;;;7.18;5.20;;;;;;;26.98;78.77;99282.53;5072291;28;20148;-87
2023/07/16 04:42:03;;;;;;;7.95;5.65;;;;;;;27.06;79.64;99278.94;5072785;28;20084;-87
2023/07/16 04:44:29;;;;;;;6.63;5.95;;;;;;;27.34;78.80;99282.59;5069587;28;20039;-87
2023/07/16 04:46:55;;;;;;;7.88;5.85;;;;;;;27.92;76.65;99281.78;5053185;28;20036;-87
2023/07/16 04:49:21;;;;;;;7.25;6.10;;;;;;;29.03;73.20;99283.63;5069710;28;20041;-87
2023/07/16 04:51:47;;;;;;;6.90;5.88;;;;;;;30.39;69.14;99290.72;5070160;28;20429;-87
2023/07/16 04:54:17;;;;;;;6.70;6.05;;;;;;;31.24;66.20;99280.75;5069989;28;20045;-87
2023/07/16 04:56:42;;;;;;;7.72;5.50;;;;;;;31.73;65.33;99320.50;5052983;28;20025;-88
2023/07/16 04:59:08;;;;;;;6.47;5.65;;;;;;;31.37;65.00;99334.56;5053038;28;20040;-87
2023/07/16 05:01:33;;;;;;;6.63;5.45;;;;;;;30.86;66.43;99321.88;5069907;28;20175;-87
2023/07/16 05:03:58;;;;;;;6.65;6.03;;;;;;;30.40;67.41;99311.16;5053001;28;20047;-87
2023/07/16 05:06:24;;;;;;;6.80;5.65;;;;;;;30.27;68.04;99325.44;5069535;28;20028;-88
2023/07/16 05:08:49;;;;;;;5.80;4.93;;;;;;;30.35;67.77;99324.41;5052946;28;20028;-88
2023/07/16 05:11:14;;;;;;;8.27;5.43;;;;;;;30.79;66.48;99307.59;5052714;28;20220;-88
2023/07/16 05:13:40;;;;;;;5.78;5.20;;;;;;;32.04;63.13;99326.94;5052733;28;20173;-88
2023/07/16 05:16:05;;;;;;;6.28;5.68;;;;;;;33.06;60.44;99305.06;5071674;28;20045;-88
2023/07/16 05:18:31;;;;;;;5.70;5.30;;;;;;;33.61;59.03;99311.22;5070762;28;20082;-88
2023/07/16 05:20:56;;;;;;;5.97;5.22;;;;;;;33.26;59.31;99303.75;5077578;28;20031;-88
2023/07/16 05:23:22;;;;;;;6.70;5.22;;;;;;;32.86;60.38;99337.63;5091808;28;20028;-87
2023/07/16 05:25:49;;;;;;;5.88;5.15;;;;;;;32.37;61.00;99331.25;5090954;28;20660;-88
2023/07/16 05:28:16;;;;;;;5.80;4.82;;;;;;;32.03;61.79;99327.97;5074111;28;20029;-88
2023/07/16 05:30:43;;;;;;;5.90;4.80;;;;;;;31.88;62.16;99333.66;5090617;28;20024;-87
2023/07/16 05:33:10;;;;;;;5.70;5.10;;;;;;;32.01;61.97;99347.03;5090802;28;20391;-87
2023/07/16 05:35:39;;;;;;;5.43;4.93;;;;;;;32.52;60.79;99348.72;5091906;28;20111;-88
2023/07/16 05:38:04;;;;;;;5.78;4.97;;;;;;;33.04;60.14;99348.47;5091978;28;20067;-87
2023/07/16 05:40:32;;;;;;;8.23;4.85;;;;;;;33.13;59.77;99352.50;5091642;28;20071;-88
2023/07/16 05:42:57;;;;;;;6.15;4.50;;;;;;;32.96;60.00;99337.97;5091968;28;20025;-88
2023/07/16 05:45:23;;;;;;;5.63;5.10;;;;;;;32.92;60.38;99336.78;5068952;28;20040;-88
2023/07/16 05:47:48;;;;;;;6.97;4.63;;;;;;;32.88;60.65;99341.75;5069186;28;20037;-89
2023/07/16 05:50:15;;;;;;;5.55;4.93;;;;;;;32.53;59.85;99336.94;5056120;28;20064;-88
2023/07/16 05:52:40;;;;;;;7.65;4.60;;;;;;;32.26;60.92;99347.06;5073565;28;20032;-88
2023/07/16 05:55:09;;;;;;;6.13;4.78;;;;;;;32.05;61.85;99359.03;5056476;28;20263;-88
2023/07/16 05:57:35;;;;;;;6.93;4.38;;;;;;;31.86;62.62;99348.38;5056261;28;20115;-88
2023/07/16 06:00:00;;;;;;;4.70;4.25;;;;;;;31.79;62.88;99361.88;5073203;28;20048;-88
2023/07/16 06:02:26;;;;;;;5.50;5.00;;;;;;;31.67;62.70;99355.53;5073044;28;20025;-88
2023/07/16 06:04:51;;;;;;;8.90;4.45;;;;;;;31.66;62.46;99373.53;5056298;28;20127;-88
2023/07/16 06:07:17;;;;;;;7.20;4.20;;;;;;;31.65;61.32;99371.91;5032923;28;20120;-89
2023/07/16 06:09:42;;;;;;;4.47;3.53;;;;;;;31.64;61.70;99372.09;5016144;28;20136;-88
2023/07/16 06:12:08;;;;;;;5.53;3.13;;;;;;;31.54;61.34;99380.63;5033062;28;20496;-88
2023/07/16 06:14:33;;;;;;;4.88;3.53;;;;;;;31.31;61.68;99391.94;5032752;28;20072;-88
2023/07/16 06:16:59;;;;;;;5.75;3.80;;;;;;;31.04;62.24;99402.72;5047795;28;20033;-88
2023/07/16 06:19:24;;;;;;;4.10;3.65;;;;;;;30.60;63.18;99389.94;5052778;28;20033;-88
2023/07/16 06:21:49;;;;;;;3.95;3.20;;;;;;;30.49;63.21;99404.78;5052654;28;20033;-88
2023/07/16 06:24:15;;;;;;;3.90;3.15;;;;;;;30.39;63.81;99419.69;5052822;28;20037;-88
2023/07/16 06:26:40;;;;;;;3.22;2.95;;;;;;;30.23;64.60;99412.84;5052471;28;20037;-88
2023/07/16 06:29:06;;;;;;;7.53;3.78;;;;;;;30.23;64.08;99418.22;5032578;28;20042;-87
2023/07/16 06:31:33;;;;;;;6.38;3.58;;;;;;;30.05;64.06;99419.59;5032333;28;20029;-87
2023/07/16 06:33:58;;;;;;;4.75;3.38;;;;;;;29.89;64.90;99417.28;5032622;28;20037;-87
2023/07/16 06:36:23;;;;;;;6.15;2.58;;;;;;;29.79;65.00;99428.41;5032806;28;20388;-87
2023/07/16 06:38:50;;;;;;;4.05;2.83;;;;;;;29.74;64.83;99416.59;5061121;28;20595;-87
2023/07/16 06:41:16;;;;;;;3.67;2.83;;;;;;;29.70;64.60;99408.13;5072512;28;20569;-87
2023/07/16 06:43:43;;;;;;;5.22;2.85;;;;;;;29.75;64.18;99412.88;5072174;28;20028;-91
2023/07/16 06:46:15;;;;;;;3.90;2.85;;;;;;;29.83;64.21;99412.72;5054215;28;20041;-87
2023/07/16 06:48:41;;;;;;;3.92;3.15;;;;;;;30.89;63.28;99441.63;5052124;28;20039;-87
2023/07/16 06:51:07;;;;;;;3.55;2.80;;;;;;;31.87;61.24;99428.97;5052332;28;20108;-91
2023/07/16 06:53:33;;;;;;;4.55;2.90;;;;;;;32.82;59.48;99439.72;5051704;28;20033;-87
2023/07/16 06:55:59;;;;;;;3.58;3.17;;;;;;;33.89;57.32;99442.16;5052206;28;20476;-88
2023/07/16 06:58:33;;;;;;;3.50;2.90;;;;;;;34.99;56.68;99447.19;5051911;28;20129;-89
2023/07/16 07:00:59;;;;;;;3.47;3.17;;;;;;;36.30;53.09;99461.00;5051307;28;20048;-89
2023/07/16 07:03:26;;;;;;;6.15;3.38;;;;;;;37.56;51.58;99465.16;5035094;28;20479;-89
2023/07/16 07:05:54;;;;;;;6.18;3.50;;;;;;;38.78;49.65;99465.66;5043967;28;20047;-88
2023/07/16 07:09:20;;;;;;;4.00;2.80;;;;;;;38.63;48.84;99444.53;5089365;28;20117;-95
2023/07/16 07:12:29;;;;;;;3.25;2.95;;;;;;;37.07;50.63;99467.72;4998538;28;20155;-94
2023/07/16 07:15:36;;;;;;;3.90;3.50;;;;;;;36.25;52.33;99450.06;4953930;29;20070;-94
2023/07/16 07:19:20;;;;;;;3.90;3.10;;;;;;;36.32;52.56;99425.50;4896632;29;20044;-95
2023/07/16 07:22:38;;;;;;;3.00;2.67;;;;;;;36.59;52.43;99469.13;4786471;29;20045;-95
2023/07/16 07:25:43;;;;;;;3.92;2.75;;;;;;;36.43;52.18;99471.53;4768610;30;20043;-95
2023/07/16 07:29:11;;;;;;;3.78;2.88;;;;;;;36.14;53.04;99448.22;4768745;30;20113;-95
2023/07/16 07:32:37;;;;;;;3.33;2.63;;;;;;;37.33;50.41;99475.16;4751301;30;20093;-94
2023/07/16 07:36:05;;;;;;;2.75;2.50;;;;;;;38.26;49.90;99479.81;4733526;30;20265;-95
2023/07/16 07:39:30;;;;;;;2.17;2.03;;;;;;;37.81;49.40;99480.97;4697489;30;20053;-94
2023/07/16 07:42:16;;;;;;;2.33;2.13;;;;;;;36.75;50.38;99479.16;4688115;30;20136;-95
2023/07/16 07:45:08;;;;;;;2.05;1.90;;;;;;;35.66;51.64;99463.84;4684081;30;20070;-94
2023/07/16 07:47:35;;;;;;;2.53;2.33;;;;;;;34.54;52.77;99452.28;4716083;30;20133;-93
2023/07/16 07:50:26;;;;;;;2.05;1.95;;;;;;;33.85;53.96;99440.97;4681974;30;20041;-93
2023/07/16 07:53:14;;;;;;;2.03;1.92;;;;;;;33.40;55.65;99469.09;4663373;30;20051;-94
2023/07/16 07:55:58;;;;;;;2.63;2.22;;;;;;;33.07;56.67;99472.13;4660161;30;20053;-91
2023/07/16 08:06:20;;;;;;;3.05;1.83;;;;;;;36.73;51.09;99463.09;4614657;30;20094;-95
2023/07/16 08:10:03;;;;;;;2.38;2.20;;;;;;;36.47;50.27;99445.59;4621605;30;20441;-95
2023/07/16 08:13:18;;;;;;;2.28;2.17;;;;;;;35.65;51.55;99451.34;4696246;30;20042;-94
2023/07/16 08:16:42;;;;;;;2.25;1.90;;;;;;;34.66;53.05;99426.06;4661203;30;20058;-95
2023/07/16 08:19:09;;;;;;;2.35;2.25;;;;;;;34.07;54.67;99419.69;4644428;30;20113;-88
2023/07/16 08:21:35;;;;;;;1.92;1.83;;;;;;;33.64;55.56;99421.50;4666710;30;20452;-86
2023/07/16 08:24:20;;;;;;;2.65;2.45;;;;;;;33.22;55.94;99407.00;4696591;30;20037;-87
2023/07/16 08:26:46;;;;;;;2.78;2.58;;;;;;;33.01;56.71;99400.16;4696377;30;20060;-87
2023/07/16 08:29:11;;;;;;;2.53;2.20;;;;;;;32.96;56.62;99398.16;4696775;30;20466;-88
2023/07/16 08:31:38;;;;;;;2.50;2.30;;;;;;;33.08;57.35;99382.06;4710961;30;20050;-88
2023/07/16 08:34:04;;;;;;;2.30;2.10;;;;;;;33.30;57.52;99400.50;4709254;30;20053;-87
2023/07/16 08:36:33;;;;;;;2.08;1.98;;;;;;;33.13;57.08;99374.09;4713841;30;20049;-87
2023/07/16 08:38:58;;;;;;;1.95;1.85;;;;;;;33.25;56.30;99401.16;4726904;30;20049;-85
2023/07/16 08:41:24;;;;;;;1.95;1.73;;;;;;;33.07;57.50;99393.88;4737768;30;20595;-83
2023/07/16 08:43:50;;;;;;;3.28;2.20;;;;;;;32.98;57.90;99400.59;4749304;30;20071;-85
2023/07/16 08:46:15;;;;;;;2.20;2.10;;;;;;;32.85;58.32;99395.31;4739510;30;20071;-82
2023/07/16 08:48:41;;;;;;;2.40;2.20;;;;;;;32.67;58.33;99405.03;4800391;29;20049;-82
2023/07/16 08:51:09;;;;;;;2.50;2.30;;;;;;;32.39;58.90;99412.72;4837047;29;20050;-91
2023/07/16 08:53:34;;;;;;;2.60;2.10;;;;;;;31.98;59.56;99395.13;4838777;29;20042;-90
2023/07/16 08:56:02;;;;;;;3.05;2.17;;;;;;;31.68;60.89;99394.84;4838728;29;20049;-88
2023/07/16 08:58:28;;;;;;;2.47;1.90;;;;;;;31.35;62.99;99386.91;4837810;29;20046;-89
2023/07/16 09:00:56;;;;;;;2.50;2.30;;;;;;;30.75;64.83;99338.63;4843324;29;20052;-87
2023/07/16 09:03:22;;;;;;;2.67;2.47;;;;;;;30.72;66.24;99377.53;4875988;29;20100;-89
2023/07/16 09:05:48;;;;;;;2.67;2.40;;;;;;;30.45;67.52;99368.63;4877039;29;20136;-92
2023/07/16 09:08:28;;;;;;;2.70;2.50;;;;;;;30.32;70.21;99365.94;4951273;29;20038;-89
2023/07/16 09:10:57;;;;;;;2.72;2.20;;;;;;;30.05;71.27;99367.75;4935038;29;20085;-88
2023/07/16 09:13:29;;;;;;;3.15;2.33;;;;;;;29.94;71.18;99387.97;5049488;28;20069;-87
2023/07/16 09:15:55;;;;;;;2.53;2.33;;;;;;;29.76;72.04;99399.28;5046392;28;20542;-88
2023/07/16 09:18:26;;;;;;;2.88;2.58;;;;;;;29.55;72.00;99397.53;5069345;28;20040;-88
2023/07/16 09:21:02;;;;;;;2.43;2.10;;;;;;;29.26;72.79;99366.44;5069374;28;20589;-88
2023/07/16 09:23:30;;;;;;;2.88;2.63;;;;;;;29.33;72.65;99404.84;5052112;28;20301;-91
2023/07/16 09:25:57;;;;;;;3.00;2.75;;;;;;;29.15;75.16;99401.03;5068956;28;20036;-91
2023/07/16 09:28:23;;;;;;;3.35;2.47;;;;;;;29.07;76.54;99413.56;5069253;28;20043;-92
2023/07/16 09:30:53;;;;;;;3.10;2.90;;;;;;;29.11;74.97;99434.63;5052121;28;20033;-91
2023/07/16 09:33:21;;;;;;;2.80;2.45;;;;;;;28.93;74.99;99437.78;5052669;28;20707;-90
2023/07/16 09:35:49;;;;;;;2.60;2.40;;;;;;;28.98;76.50;99470.22;5052270;28;20043;-91
2023/07/16 09:38:17;;;;;;;4.03;3.30;;;;;;;28.84;76.12;99467.41;5052508;28;20029;-91
2023/07/16 09:40:44;;;;;;;3.17;2.88;;;;;;;28.89;75.61;99482.09;5069865;28;20507;-92
2023/07/16 09:43:15;;;;;;;3.13;2.30;;;;;;;28.80;76.11;99478.72;5070464;28;20031;-92
2023/07/16 09:45:42;;;;;;;2.60;2.40;;;;;;;28.82;76.12;99482.03;5070089;28;20038;-92
2023/07/16 09:48:09;;;;;;;3.28;2.97;;;;;;;28.78;76.15;99481.59;5070292;28;20028;-91
2023/07/16 09:50:36;;;;;;;2.85;2.65;;;;;;;28.76;76.74;99480.94;5070061;28;20036;-87
2023/07/16 09:53:04;;;;;;;3.15;2.80;;;;;;;28.70;76.31;99471.00;5071860;28;20031;-88
2023/07/16 09:55:35;;;;;;;3.60;2.72;;;;;;;28.62;75.97;99464.97;5070440;28;20092;-84
2023/07/16 09:58:06;;;;;;;2.90;2.67;;;;;;;28.47;76.51;99455.13;5070262;28;20038;-84
2023/07/16 10:00:54;;;;;;;3.50;3.07;;;;;;;28.55;76.61;99489.81;5072154;28;20111;-94
2023/07/16 10:03:20;;;;;;;2.85;2.65;;;;;;;28.52;77.34;99497.41;5052252;28;20036;-92
2023/07/16 10:06:07;;;;;;;2.70;2.50;;;;;;;28.43;77.04;99498.56;5068977;28;20101;-87
2023/07/16 10:08:37;;;;;;;2.80;2.60;;;;;;;28.35;76.75;99507.50;5052063;28;20032;-87
2023/07/16 10:11:02;;;;;;;3.88;2.92;;;;;;;28.20;77.30;99510.25;5051946;28;20428;-87
2023/07/16 10:13:28;;;;;;;2.72;2.50;;;;;;;28.04;77.34;99495.22;5052148;28;20036;-87
2023/07/16 10:15:55;;;;;;;2.50;2.30;;;;;;;28.09;77.91;99518.75;5068645;28;20072;-87
2023/07/16 10:18:30;;;;;;;3.03;2.60;;;;;;;28.12;77.99;99522.94;5052120;28;20127;-86
2023/07/16 10:21:07;;;;;;;2.80;2.60;;;;;;;27.95;77.75;99499.03;5068784;28;20597;-87
2023/07/16 10:23:39;;;;;;;2.80;2.60;;;;;;;27.81;77.17;99494.53;5068802;28;20648;-86
2023/07/16 10:26:14;;;;;;;2.33;2.13;;;;;;;27.98;77.46;99511.19;5068706;28;20409;-87
2023/07/16 10:28:39;;;;;;;3.10;2.90;;;;;;;28.35;76.67;99534.31;5068791;28;20115;-85
2023/07/16 10:31:07;;;;;;;2.60;2.40;;;;;;;28.32;75.87;99503.38;5068773;28;20121;-86
2023/07/16 10:33:33;;;;;;;3.15;2.40;;;;;;;28.34;75.18;99501.34;5068863;28;20039;-86
2023/07/16 10:35:59;;;;;;;3.10;2.53;;;;;;;28.55;74.17;99535.38;5070049;28;20033;-86
2023/07/16 10:38:25;;;;;;;2.50;2.30;;;;;;;28.45;74.49;99521.47;5073454;28;20017;-85
2023/07/16 10:40:51;;;;;;;2.90;2.55;;;;;;;28.23;75.23;99509.88;5074635;28;20377;-86
2023/07/16 10:43:16;;;;;;;3.17;2.35;;;;;;;28.16;74.75;99514.31;5075030;28;20476;-86
2023/07/16 10:45:42;;;;;;;2.25;2.05;;;;;;;28.18;75.24;99519.47;5073540;28;20040;-85
2023/07/16 10:48:07;;;;;;;2.45;2.05;;;;;;;28.19;74.58;99547.91;5074768;28;20026;-85
2023/07/16 10:50:34;;;;;;;2.33;2.08;;;;;;;28.06;73.97;99540.53;5074617;28;20024;-85
2023/07/16 10:53:00;;;;;;;2.28;2.08;;;;;;;27.89;74.57;99520.34;5074298;28;20024;-84
2023/07/16 10:55:31;;;;;;;2.33;2.05;;;;;;;27.87;74.49;99519.72;5073412;28;20038;-84
2023/07/16 10:57:57;;;;;;;2.50;2.30;;;;;;;27.87;75.74;99514.38;5074443;28;20024;-85
2023/07/16 11:00:23;;;;;;;2.10;2.00;;;;;;;27.86;75.14;99516.22;5075120;28;20094;-85
2023/07/16 11:02:52;;;;;;;2.35;2.15;;;;;;;27.90;74.61;99516.69;5073072;28;20028;-87
2023/07/16 11:05:18;;;;;;;3.10;2.20;;;;;;;27.77;73.96;99503.94;5073131;28;20025;-85
2023/07/16 11:07:45;;;;;;;2.80;2.30;;;;;;;27.87;73.66;99525.91;5074148;28;20043;-86
2023/07/16 11:10:11;;;;;;;2.10;2.00;;;;;;;28.04;74.53;99539.91;5073029;28;20039;-85
2023/07/16 11:12:36;;;;;;;2.45;2.25;;;;;;;28.07;73.85;99543.06;5074482;28;20033;-84
2023/07/16 11:15:02;;;;;;;3.40;2.45;;;;;;;27.94;73.17;99517.94;5073989;28;20067;-88
2023/07/16 11:17:28;;;;;;;2.30;2.10;;;;;;;28.17;73.96;99541.94;5074216;28;20078;-89
2023/07/16 11:19:55;;;;;;;2.35;2.15;;;;;;;28.20;72.70;99538.88;5072954;28;20446;-89
2023/07/16 11:22:25;;;;;;;2.10;1.98;;;;;;;28.30;72.29;99545.59;5072840;28;20055;-88
2023/07/16 11:24:51;;;;;;;2.33;2.13;;;;;;;28.23;71.10;99542.03;5074081;28;20028;-88
2023/07/16 11:27:31;;;;;;;2.53;2.30;;;;;;;28.26;71.22;99538.94;5089193;28;20115;-88
2023/07/16 11:29:59;;;;;;;2.45;2.17;;;;;;;28.28;70.97;99546.81;5092370;28;20028;-88
2023/07/16 11:32:31;;;;;;;2.40;2.20;;;;;;;28.30;71.10;99544.75;5092518;28;20114;-89
2023/07/16 11:34:58;;;;;;;1.85;1.75;;;;;;;28.31;70.34;99533.03;5092046;28;20036;-88
2023/07/16 11:37:28;;;;;;;3.05;1.95;;;;;;;28.33;70.04;99525.63;5094052;28;20038;-88
2023/07/16 11:40:18;;;;;;;2.60;2.40;;;;;;;28.51;69.47;99536.78;5092196;28;20051;-88
2023/07/16 11:42:44;;;;;;;1.95;1.85;;;;;;;28.59;69.67;99538.50;5093609;28;20102;-89
2023/07/16 11:45:23;;;;;;;2.25;2.03;;;;;;;28.76;69.14;99534.56;5091820;28;20111;-89
2023/07/16 11:47:48;;;;;;;2.95;2.40;;;;;;;28.95;68.31;99545.66;5093424;28;20020;-89
2023/07/16 11:50:15;;;;;;;3.00;2.10;;;;;;;28.96;67.69;99523.19;5090916;28;20094;-89
2023/07/16 11:52:41;;;;;;;2.70;2.50;;;;;;;29.20;67.13;99546.94;5090974;28;20093;-89
2023/07/16 11:55:07;;;;;;;2.17;2.00;;;;;;;29.32;67.80;99537.31;5073534;28;20134;-89
2023/07/16 11:57:32;;;;;;;2.55;2.00;;;;;;;29.32;68.12;99517.72;5090713;28;20103;-89